Time;durP1;ratioP1;P1;durP2;ratioP2;P2;SDS_P1;SDS_P2;PMS_P1;PMS_P2;Temp;Humidity;BMP_temperature;BMP_pressure;BME280_temperature;BME280_humidity;BME280_pressure;Samples;Min_cycle;Max_cycle;Signal;HPM_P1;HPM_P2
2022/04/05 00:00:17;;;;;;;6.45;2.55;;;22.70;99.90;;;;;;5072869;28;20103;-68
2022/04/05 00:02:45;;;;;;;11.93;2.83;;;22.80;99.90;;;;;;5092974;28;20021;-68
2022/04/05 00:05:12;;;;;;;5.80;2.70;;;22.50;99.90;;;;;;5064367;28;20105;-69
2022/04/05 00:07:39;;;;;;;6.75;2.58;;;22.60;99.90;;;;;;5082976;28;20121;-69
2022/04/05 00:10:07;;;;;;;3.50;1.75;;;22.80;99.90;;;;;;5085103;28;20028;-69
2022/04/05 00:12:37;;;;;;;4.25;1.55;;;23.00;99.90;;;;;;5079469;28;20100;-69
2022/04/05 00:15:05;;;;;;;4.20;1.80;;;23.10;99.90;;;;;;5090412;28;20020;-69
2022/04/05 00:17:33;;;;;;;4.20;2.30;;;23.40;99.90;;;;;;5082474;28;20037;-68
2022/04/05 00:20:00;;;;;;;6.28;2.38;;;23.40;99.90;;;;;;5073409;28;20021;-70
2022/04/05 00:22:28;;;;;;;3.55;2.00;;;23.60;99.90;;;;;;5063229;28;20036;-70
2022/04/05 00:24:55;;;;;;;3.53;1.90;;;23.90;99.90;;;;;;5093894;28;20024;-69
2022/04/05 00:27:22;;;;;;;2.90;1.80;;;24.10;99.90;;;;;;5084468;28;20405;-69
2022/04/05 00:29:50;;;;;;;3.00;1.77;;;23.80;99.90;;;;;;5081864;28;20027;-69
2022/04/05 00:32:17;;;;;;;3.15;1.90;;;23.90;99.90;;;;;;5087366;28;20074;-69
2022/04/05 00:34:44;;;;;;;4.15;1.52;;;23.80;99.90;;;;;;5082616;28;20024;-70
2022/04/05 00:37:12;;;;;;;3.25;1.55;;;24.10;99.90;;;;;;5077604;28;20134;-69
2022/04/05 00:39:39;;;;;;;3.10;1.88;;;24.40;99.90;;;;;;5078315;28;20033;-69
2022/04/05 00:42:09;;;;;;;9.40;3.17;;;24.70;99.90;;;;;;5074257;28;20511;-69
2022/04/05 00:44:37;;;;;;;4.85;2.03;;;24.70;99.90;;;;;;5061727;28;20033;-69
2022/04/05 00:47:16;;;;;;;2.80;1.90;;;24.80;99.90;;;;;;5080190;28;20089;-69
2022/04/05 00:49:44;;;;;;;3.10;1.60;;;24.80;99.90;;;;;;5075124;28;20021;-68
2022/04/05 00:52:13;;;;;;;2.85;1.55;;;25.10;99.90;;;;;;5075164;28;20425;-69
2022/04/05 00:54:41;;;;;;;3.75;1.50;;;25.10;99.90;;;;;;5074046;28;20129;-69
2022/04/05 00:57:16;;;;;;;2.97;1.85;;;25.50;99.90;;;;;;5074603;28;20046;-69
2022/04/05 00:59:49;;;;;;;4.68;1.70;;;25.30;99.90;;;;;;5056597;28;20502;-69
2022/04/05 01:02:19;;;;;;;3.63;1.80;;;25.20;99.90;;;;;;5073569;28;20024;-69
2022/04/05 01:04:49;;;;;;;5.07;1.60;;;25.20;99.90;;;;;;5074346;28;20032;-70
2022/04/05 01:07:18;;;;;;;5.28;1.75;;;25.00;99.90;;;;;;5074317;28;20089;-69
2022/04/05 01:09:46;;;;;;;2.63;1.40;;;24.90;99.90;;;;;;5076707;28;20028;-70
2022/04/05 01:12:14;;;;;;;4.95;1.92;;;25.00;99.90;;;;;;5056626;28;20028;-69
2022/04/05 01:14:42;;;;;;;3.88;1.52;;;25.30;99.90;;;;;;5057088;28;20086;-69
2022/04/05 01:17:10;;;;;;;1.80;1.05;;;25.30;99.90;;;;;;5074003;28;20111;-69
2022/04/05 01:19:37;;;;;;;5.03;1.40;;;25.80;99.90;;;;;;5077035;28;20051;-69
2022/04/05 01:22:05;;;;;;;3.05;1.17;;;25.50;99.90;;;;;;5069636;28;20104;-69
2022/04/05 01:24:33;;;;;;;3.83;1.42;;;25.30;99.90;;;;;;5074351;28;20024;-70
2022/04/05 01:27:05;;;;;;;2.30;1.13;;;25.40;99.90;;;;;;5075111;28;20096;-69
2022/04/05 01:29:33;;;;;;;3.10;1.00;;;26.00;99.90;;;;;;5074256;28;20025;-69
2022/04/05 01:32:07;;;;;;;4.05;1.52;;;26.30;99.90;;;;;;5073291;28;20090;-69
2022/04/05 01:34:35;;;;;;;;;;;27.00;99.90;;;;;;5076255;28;20430;-70
2022/04/05 01:37:05;;;;;;;2.50;1.13;;;27.50;99.90;;;;;;5055653;28;20077;-69
2022/04/05 01:39:35;;;;;;;3.13;1.23;;;26.70;99.90;;;;;;5079749;28;20092;-68
2022/04/05 01:42:06;;;;;;;2.85;1.33;;;26.40;99.90;;;;;;5082912;28;20023;-68
2022/04/05 01:44:34;;;;;;;2.55;1.27;;;26.40;99.90;;;;;;5079115;28;20028;-68
2022/04/05 01:47:10;;;;;;;1.67;1.08;;;26.90;99.90;;;;;;5078571;28;20471;-68
2022/04/05 01:49:39;;;;;;;2.88;1.30;;;26.70;99.90;;;;;;5045171;28;20032;-68
2022/04/05 01:52:18;;;;;;;3.72;1.27;;;26.20;99.90;;;;;;5093301;22;20437;-68
2022/04/05 01:54:45;;;;;;;4.38;1.42;;;26.20;99.90;;;;;;5062724;28;20033;-69
2022/04/05 01:57:13;;;;;;;3.55;1.10;;;26.20;99.90;;;;;;5065962;28;20033;-65
2022/04/05 01:59:41;;;;;;;14.95;2.15;;;26.10;99.90;;;;;;5058867;28;20032;-66
2022/04/05 02:02:11;;;;;;;6.38;1.58;;;26.40;99.90;;;;;;5063529;28;20021;-66
2022/04/05 02:04:38;;;;;;;3.92;0.85;;;27.20;99.90;;;;;;5061534;28;20037;-66
2022/04/05 02:07:12;;;;;;;7.05;1.40;;;26.50;99.90;;;;;;5059309;28;22703;-65
2022/04/05 02:09:40;;;;;;;2.35;1.00;;;26.10;99.90;;;;;;5060203;28;20024;-67
2022/04/05 02:12:09;;;;;;;8.32;1.20;;;25.90;99.90;;;;;;5058672;28;20060;-66
2022/04/05 02:14:39;;;;;;;4.07;1.55;;;25.90;99.90;;;;;;5062024;28;20112;-66
2022/04/05 02:17:08;;;;;;;3.35;1.20;;;25.60;99.90;;;;;;5062361;28;20033;-66
2022/04/05 02:19:36;;;;;;;6.65;1.40;;;25.60;99.90;;;;;;5060083;28;20029;-66
2022/04/05 02:22:04;;;;;;;5.63;2.20;;;25.90;99.90;;;;;;5061364;28;20041;-66
2022/04/05 02:24:31;;;;;;;4.30;1.13;;;26.10;99.90;;;;;;5066653;28;20519;-66
2022/04/05 02:26:58;;;;;;;9.18;1.58;;;26.50;99.90;;;;;;5065300;28;20017;-66
2022/04/05 02:29:26;;;;;;;7.50;1.70;;;25.90;99.90;;;;;;5065247;28;20029;-65
2022/04/05 02:31:53;;;;;;;4.85;0.85;;;25.80;99.90;;;;;;5062723;28;20157;-66
2022/04/05 02:34:20;;;;;;;7.00;1.58;;;26.70;99.90;;;;;;5065361;28;20017;-66
2022/04/05 02:36:48;;;;;;;7.60;2.45;;;26.60;99.90;;;;;;5066088;28;20029;-66
2022/04/05 02:39:15;;;;;;;4.45;1.42;;;25.90;99.90;;;;;;5062178;28;20059;-66
2022/04/05 02:41:42;;;;;;;5.63;1.48;;;25.70;99.90;;;;;;5061122;28;20055;-66
2022/04/05 02:44:10;;;;;;;3.25;1.00;;;25.80;99.90;;;;;;5064013;28;20112;-66
2022/04/05 02:46:37;;;;;;;5.88;1.23;;;25.60;99.90;;;;;;5080229;28;20079;-66
2022/04/05 02:49:06;;;;;;;6.55;1.35;;;25.70;99.90;;;;;;5061052;28;20021;-66
2022/04/05 02:51:33;;;;;;;4.57;1.40;;;25.60;99.90;;;;;;5070780;28;20045;-67
2022/04/05 02:54:00;;;;;;;6.30;1.15;;;26.30;99.90;;;;;;5066051;28;20489;-66
2022/04/05 02:56:28;;;;;;;6.07;1.52;;;26.50;99.90;;;;;;5067835;28;20024;-65
2022/04/05 02:58:55;;;;;;;8.60;1.20;;;26.00;99.90;;;;;;5062127;28;20706;-65
2022/04/05 03:01:23;;;;;;;5.25;1.40;;;25.70;99.90;;;;;;5064138;28;20392;-66
2022/04/05 03:03:50;;;;;;;6.00;1.13;;;25.70;99.90;;;;;;5050540;28;20099;-66
2022/04/05 03:06:17;;;;;;;7.68;1.60;;;25.60;99.90;;;;;;5045944;28;20025;-66
2022/04/05 03:08:46;;;;;;;3.80;1.13;;;25.50;99.90;;;;;;5053333;28;20036;-66
2022/04/05 03:11:13;;;;;;;6.40;1.48;;;25.40;99.90;;;;;;5053654;28;20036;-66
2022/04/05 03:13:41;;;;;;;7.22;1.20;;;25.10;99.90;;;;;;5045194;28;20025;-65
2022/04/05 03:16:08;;;;;;;5.95;1.42;;;25.00;99.90;;;;;;5048896;28;20037;-66
2022/04/05 03:18:35;;;;;;;6.15;1.45;;;25.10;99.90;;;;;;5050517;28;20056;-66
2022/04/05 03:21:02;;;;;;;5.18;1.20;;;24.90;99.90;;;;;;5050233;28;20033;-66
2022/04/05 03:23:30;;;;;;;8.80;1.10;;;25.00;99.90;;;;;;5049596;28;20033;-66
2022/04/05 03:25:57;;;;;;;8.02;1.58;;;25.70;99.90;;;;;;5045820;28;20025;-65
2022/04/05 03:28:25;;;;;;;5.50;1.30;;;25.60;99.90;;;;;;5051475;28;20501;-66
2022/04/05 03:30:52;;;;;;;8.43;1.38;;;25.20;99.90;;;;;;5047434;28;20374;-65
2022/04/05 03:33:19;;;;;;;4.05;0.93;;;24.80;99.90;;;;;;5047537;28;20440;-66
2022/04/05 03:35:47;;;;;;;4.18;1.33;;;24.60;99.90;;;;;;5049718;28;20045;-66
2022/04/05 03:38:14;;;;;;;9.65;1.35;;;24.60;99.90;;;;;;5052060;28;20025;-66
2022/04/05 03:40:41;;;;;;;6.40;1.02;;;24.40;99.90;;;;;;5051547;28;20028;-65
2022/04/05 03:43:12;;;;;;;4.72;1.30;;;24.60;99.90;;;;;;5049245;28;20022;-65
2022/04/05 03:45:40;;;;;;;5.10;1.05;;;24.70;99.90;;;;;;5052686;28;20017;-66
2022/04/05 03:48:08;;;;;;;6.35;0.90;;;24.80;99.90;;;;;;5045818;28;20041;-65
2022/04/05 03:50:35;;;;;;;8.15;1.27;;;25.10;99.90;;;;;;5053037;28;20072;-66
2022/04/05 03:53:02;;;;;;;5.88;1.13;;;25.00;99.90;;;;;;5047257;28;20121;-66
2022/04/05 03:55:30;;;;;;;11.18;1.95;;;25.10;99.90;;;;;;5044087;28;20375;-66
2022/04/05 03:57:57;;;;;;;10.77;1.23;;;24.90;99.90;;;;;;5048106;28;20572;-66
2022/04/05 04:00:24;;;;;;;7.57;1.13;;;25.00;99.90;;;;;;5052249;28;20067;-65
2022/04/05 04:02:52;;;;;;;10.35;1.58;;;24.70;99.90;;;;;;5049879;28;20036;-65
2022/04/05 04:05:20;;;;;;;9.05;1.38;;;24.50;99.90;;;;;;5050072;28;20029;-65
2022/04/05 04:07:50;;;;;;;6.70;1.63;;;24.50;99.90;;;;;;5045049;28;20032;-68
2022/04/05 04:10:18;;;;;;;13.18;1.95;;;24.40;99.90;;;;;;5045276;28;20037;-68
2022/04/05 04:12:45;;;;;;;8.02;1.38;;;24.50;99.90;;;;;;5061464;28;20033;-69
2022/04/05 04:15:12;;;;;;;11.40;2.67;;;24.40;99.90;;;;;;5043834;28;20029;-69
2022/04/05 04:17:40;;;;;;;7.53;2.05;;;24.40;99.90;;;;;;5050481;28;20025;-69
2022/04/05 04:20:08;;;;;;;7.60;1.55;;;24.40;99.90;;;;;;5051267;28;20151;-69
2022/04/05 04:22:35;;;;;;;8.18;1.55;;;24.80;99.90;;;;;;5053222;28;20112;-69
2022/04/05 04:25:03;;;;;;;6.43;1.88;;;24.60;99.90;;;;;;5053851;28;20028;-69
2022/04/05 04:27:30;;;;;;;7.07;1.48;;;24.50;99.90;;;;;;5047471;28;20083;-69
2022/04/05 04:29:57;;;;;;;7.70;1.50;;;24.30;99.90;;;;;;5050902;28;20036;-68
2022/04/05 04:32:25;;;;;;;5.78;1.70;;;24.40;99.90;;;;;;5053042;28;20025;-69
2022/04/05 04:34:52;;;;;;;5.18;1.05;;;24.40;99.90;;;;;;5043880;28;20029;-67
2022/04/05 04:37:19;;;;;;;10.93;2.45;;;24.40;99.90;;;;;;5046262;28;20518;-66
2022/04/05 04:39:48;;;;;;;9.07;1.30;;;24.10;99.90;;;;;;5049043;28;20025;-66
2022/04/05 04:42:15;;;;;;;5.35;1.27;;;23.90;99.90;;;;;;5049458;28;20061;-67
2022/04/05 04:44:42;;;;;;;6.28;1.70;;;23.90;99.90;;;;;;5051843;28;20501;-68
2022/04/05 04:47:09;;;;;;;8.07;1.80;;;23.60;99.90;;;;;;5051892;28;20021;-67
2022/04/05 04:49:37;;;;;;;6.10;1.17;;;23.40;99.90;;;;;;5052260;28;20082;-68
2022/04/05 04:52:05;;;;;;;7.55;1.83;;;23.60;99.90;;;;;;5043874;28;20420;-67
2022/04/05 04:54:32;;;;;;;10.63;1.85;;;23.50;99.90;;;;;;5050424;28;20029;-68
2022/04/05 04:56:59;;;;;;;10.68;1.85;;;23.60;99.90;;;;;;5051689;28;20380;-67
2022/04/05 04:59:27;;;;;;;11.48;1.70;;;23.50;99.90;;;;;;5052984;28;20037;-67
2022/04/05 05:01:54;;;;;;;10.10;2.30;;;23.40;99.90;;;;;;5042272;28;20079;-67
2022/04/05 05:04:21;;;;;;;9.27;1.67;;;23.40;99.90;;;;;;5047410;28;20025;-67
2022/04/05 05:06:48;;;;;;;9.88;1.75;;;23.40;99.90;;;;;;5048227;28;20025;-67
2022/04/05 05:09:16;;;;;;;7.28;1.50;;;23.50;99.90;;;;;;5048225;28;20029;-68
2022/04/05 05:11:44;;;;;;;7.00;2.65;;;23.60;99.90;;;;;;5051040;28;20505;-68
2022/04/05 05:14:11;;;;;;;9.10;2.05;;;23.60;99.90;;;;;;5049591;28;20032;-68
2022/04/05 05:16:39;;;;;;;9.70;1.42;;;23.70;99.90;;;;;;5047197;28;20607;-68
2022/04/05 05:19:06;;;;;;;6.03;2.40;;;23.60;99.90;;;;;;5052272;28;20484;-68
2022/04/05 05:21:33;;;;;;;5.18;1.48;;;23.60;99.90;;;;;;5046785;28;20036;-67
2022/04/05 05:24:01;;;;;;;10.30;1.90;;;23.60;99.90;;;;;;5052385;28;20055;-68
2022/04/05 05:26:28;;;;;;;12.55;2.15;;;23.50;99.90;;;;;;5051062;28;20068;-67
2022/04/05 05:28:55;;;;;;;7.43;1.45;;;23.60;99.90;;;;;;5051393;28;20063;-68
2022/04/05 05:31:23;;;;;;;6.93;1.20;;;23.50;99.90;;;;;;5050933;28;20106;-68
2022/04/05 05:33:50;;;;;;;7.03;1.52;;;23.40;99.90;;;;;;5049886;28;20087;-68
2022/04/05 05:36:17;;;;;;;6.93;1.92;;;23.40;99.90;;;;;;5054931;28;20101;-69
2022/04/05 05:38:45;;;;;;;7.53;1.50;;;23.50;99.90;;;;;;5048273;28;20471;-68
2022/04/05 05:41:12;;;;;;;9.45;1.38;;;23.40;99.90;;;;;;5036582;28;20138;-68
2022/04/05 05:43:41;;;;;;;11.45;1.73;;;23.20;99.90;;;;;;5046873;28;20029;-69
2022/04/05 05:46:08;;;;;;;5.78;0.90;;;23.20;99.90;;;;;;5047697;28;20043;-68
2022/04/05 05:48:35;;;;;;;5.65;1.00;;;23.20;99.90;;;;;;5048954;28;20032;-69
2022/04/05 05:51:03;;;;;;;5.57;1.13;;;23.20;99.90;;;;;;5048304;28;20044;-70
2022/04/05 05:53:30;;;;;;;5.65;0.90;;;23.20;99.90;;;;;;5049315;28;20048;-68
2022/04/05 05:55:57;;;;;;;6.78;1.52;;;23.10;99.90;;;;;;5046149;28;20022;-68
2022/04/05 05:58:25;;;;;;;9.23;1.10;;;23.20;99.90;;;;;;5050517;28;20079;-69
2022/04/05 06:00:52;;;;;;;9.02;3.58;;;23.20;99.90;;;;;;5044955;28;20039;-68
2022/04/05 06:03:19;;;;;;;7.22;1.52;;;23.20;99.90;;;;;;5052178;28;20033;-69
2022/04/05 06:05:47;;;;;;;7.75;1.42;;;23.20;99.90;;;;;;5052223;28;20032;-68
2022/04/05 06:08:15;;;;;;;8.40;2.00;;;23.00;99.90;;;;;;5048706;28;20104;-70
2022/04/05 06:10:42;;;;;;;5.22;1.17;;;23.00;99.90;;;;;;5052262;28;20029;-69
2022/04/05 06:13:09;;;;;;;6.60;1.40;;;22.90;99.90;;;;;;5051323;28;20044;-71
2022/04/05 06:15:37;;;;;;;9.40;1.83;;;22.90;99.90;;;;;;5047206;28;20354;-69
2022/04/05 06:18:04;;;;;;;5.82;1.15;;;22.80;99.90;;;;;;5039236;28;20084;-70
2022/04/05 06:20:32;;;;;;;4.30;0.60;;;22.80;99.90;;;;;;5051966;28;20163;-70
2022/04/05 06:23:02;;;;;;;4.03;1.10;;;22.70;99.90;;;;;;5051431;28;20025;-69
2022/04/05 06:25:35;;;;;;;4.70;1.20;;;22.60;99.90;;;;;;5050911;28;20037;-69
2022/04/05 06:28:05;;;;;;;7.45;1.48;;;22.50;99.90;;;;;;5045212;28;20029;-69
2022/04/05 06:30:34;;;;;;;4.70;1.23;;;22.50;99.90;;;;;;5033290;28;20042;-69
2022/04/05 06:33:13;;;;;;;9.00;1.25;;;22.30;99.90;;;;;;5049277;28;20032;-70
2022/04/05 06:35:46;;;;;;;7.47;1.00;;;22.30;99.90;;;;;;5049914;28;20508;-69
2022/04/05 06:38:13;;;;;;;7.25;1.80;;;22.40;99.90;;;;;;5053638;28;20025;-70
2022/04/05 06:40:42;;;;;;;5.60;1.75;;;22.40;99.90;;;;;;5049465;28;20025;-69
2022/04/05 06:43:10;;;;;;;5.95;1.17;;;22.40;99.90;;;;;;5055446;28;20053;-70
2022/04/05 06:45:38;;;;;;;4.95;0.98;;;22.30;99.90;;;;;;5054048;28;20117;-69
2022/04/05 06:48:06;;;;;;;7.95;1.70;;;22.20;99.90;;;;;;5049990;28;20044;-69
2022/04/05 06:50:40;;;;;;;5.40;1.48;;;22.30;99.90;;;;;;5055695;28;20067;-70
2022/04/05 06:53:10;;;;;;;5.65;1.60;;;22.20;99.90;;;;;;5054114;28;20523;-69
2022/04/05 06:55:38;;;;;;;7.68;1.52;;;22.10;99.90;;;;;;5054981;28;20451;-69
2022/04/05 06:58:06;;;;;;;5.97;1.80;;;22.10;99.90;;;;;;5053983;28;20520;-69
2022/04/05 07:00:33;;;;;;;12.23;1.88;;;22.00;99.90;;;;;;5053632;28;20489;-69
2022/04/05 07:03:01;;;;;;;8.00;1.77;;;22.00;99.90;;;;;;5054282;28;20035;-70
2022/04/05 07:05:28;;;;;;;6.03;1.00;;;22.00;99.90;;;;;;5052168;28;20500;-71
2022/04/05 07:07:56;;;;;;;7.10;1.55;;;21.90;99.90;;;;;;5054422;28;20935;-72
2022/04/05 07:10:24;;;;;;;8.55;2.28;;;21.90;99.90;;;;;;5049312;28;20469;-71
2022/04/05 07:12:51;;;;;;;10.65;2.58;;;21.80;99.90;;;;;;5054521;28;20342;-71
2022/04/05 07:15:19;;;;;;;8.50;1.67;;;21.80;99.90;;;;;;5053701;28;20401;-72
2022/04/05 07:17:46;;;;;;;6.65;1.45;;;21.80;99.90;;;;;;5047941;28;20029;-72
2022/04/05 07:20:13;;;;;;;6.13;1.50;;;21.80;99.90;;;;;;5045602;28;20036;-72
2022/04/05 07:22:49;;;;;;;7.22;1.23;;;21.70;99.90;;;;;;5050851;28;20091;-70
2022/04/05 07:25:20;;;;;;;6.78;1.60;;;21.60;99.90;;;;;;5044525;28;20059;-70
2022/04/05 07:27:51;;;;;;;5.28;1.23;;;21.60;99.90;;;;;;5053447;28;20025;-72
2022/04/05 07:30:20;;;;;;;5.32;1.30;;;21.60;99.90;;;;;;5050224;28;20036;-72
2022/04/05 07:32:47;;;;;;;4.35;1.40;;;21.60;99.90;;;;;;5051492;28;20029;-72
2022/04/05 07:35:17;;;;;;;8.02;1.15;;;21.50;99.90;;;;;;5055261;28;20454;-72
2022/04/05 07:37:45;;;;;;;4.40;1.02;;;21.40;99.90;;;;;;5054452;28;20425;-72
2022/04/05 07:40:13;;;;;;;5.22;0.98;;;21.40;99.90;;;;;;5054194;28;20044;-71
2022/04/05 07:42:42;;;;;;;7.18;1.75;;;21.40;99.90;;;;;;5048711;28;20018;-72
2022/04/05 07:45:10;;;;;;;9.23;2.00;;;21.30;99.90;;;;;;5052537;28;20045;-73
2022/04/05 07:47:38;;;;;;;6.45;1.17;;;21.30;99.90;;;;;;5055462;28;20067;-72
2022/04/05 07:50:07;;;;;;;10.13;1.20;;;21.30;99.90;;;;;;5052083;28;20029;-72
2022/04/05 07:52:35;;;;;;;8.43;1.38;;;21.30;99.90;;;;;;5052121;28;20045;-72
2022/04/05 07:55:03;;;;;;;6.18;1.70;;;21.30;99.90;;;;;;5049858;28;20112;-72
2022/04/05 07:57:31;;;;;;;6.07;1.13;;;21.30;99.90;;;;;;5043367;28;20021;-72
2022/04/05 08:00:01;;;;;;;8.07;1.63;;;21.30;99.90;;;;;;5057898;22;20077;-72
2022/04/05 08:02:28;;;;;;;5.20;1.77;;;21.20;99.90;;;;;;5046354;28;20064;-73
2022/04/05 08:04:55;;;;;;;8.32;1.67;;;21.20;99.90;;;;;;5053073;28;20427;-72
2022/04/05 08:07:23;;;;;;;4.20;0.90;;;21.10;99.90;;;;;;5035097;28;20515;-72
2022/04/05 08:09:50;;;;;;;6.03;1.00;;;21.10;99.90;;;;;;5033368;28;20490;-72
2022/04/05 08:12:17;;;;;;;8.40;1.65;;;21.10;99.90;;;;;;5037177;28;20021;-71
2022/04/05 08:14:44;;;;;;;7.05;1.23;;;21.10;99.90;;;;;;5036421;28;20037;-71
2022/04/05 08:17:12;;;;;;;4.88;1.00;;;21.10;99.90;;;;;;5034538;28;20041;-72
2022/04/05 08:19:39;;;;;;;6.43;1.35;;;21.10;99.90;;;;;;5031591;28;20068;-72
2022/04/05 08:22:10;;;;;;;9.45;1.40;;;21.00;99.90;;;;;;5036832;28;20021;-71
2022/04/05 08:24:37;;;;;;;6.50;1.83;;;21.00;99.90;;;;;;5045315;28;20048;-72
2022/04/05 08:27:05;;;;;;;4.28;0.90;;;21.10;99.90;;;;;;5035489;28;20029;-72
2022/04/05 08:29:39;;;;;;;6.45;1.05;;;21.00;99.90;;;;;;5028996;28;20041;-72
2022/04/05 08:32:07;;;;;;;3.90;0.75;;;21.10;99.90;;;;;;5033200;28;20036;-72
2022/04/05 08:34:35;;;;;;;7.00;1.55;;;21.00;99.90;;;;;;5019148;28;20533;-72
2022/04/05 08:37:02;;;;;;;5.68;1.30;;;21.00;99.90;;;;;;5042322;28;20031;-72
2022/04/05 08:39:29;;;;;;;3.40;1.40;;;21.00;99.90;;;;;;5050035;28;20105;-71
2022/04/05 08:41:57;;;;;;;4.60;1.48;;;21.00;99.90;;;;;;5033536;28;20103;-72
2022/04/05 08:44:25;;;;;;;8.00;1.88;;;21.10;99.90;;;;;;5032581;28;20033;-72
2022/04/05 08:46:53;;;;;;;5.10;1.52;;;21.10;99.90;;;;;;5036823;28;20025;-72
2022/04/05 08:49:22;;;;;;;4.95;1.00;;;21.10;99.90;;;;;;5020321;28;20033;-72
2022/04/05 08:51:50;;;;;;;3.35;1.15;;;21.10;99.90;;;;;;5019992;28;20069;-72
2022/04/05 08:54:17;;;;;;;7.10;1.52;;;21.20;99.90;;;;;;5009212;28;20030;-72
2022/04/05 08:56:46;;;;;;;5.30;0.85;;;21.10;99.90;;;;;;5016249;28;20021;-71
2022/04/05 08:59:13;;;;;;;4.65;1.67;;;21.20;99.90;;;;;;4995619;28;20061;-72
2022/04/05 09:01:41;;;;;;;4.20;1.45;;;21.10;99.90;;;;;;5004521;28;20056;-72
2022/04/05 09:04:10;;;;;;;5.18;1.10;;;21.10;99.90;;;;;;5006206;28;20493;-72
2022/04/05 09:06:37;;;;;;;3.67;1.17;;;21.10;99.90;;;;;;5013636;28;20064;-71
2022/04/05 09:09:16;;;;;;;7.40;2.25;;;21.10;99.90;;;;;;4995479;28;20085;-72
2022/04/05 09:11:56;;;;;;;6.40;1.40;;;21.10;99.90;;;;;;5012868;28;20413;-71
2022/04/05 09:14:25;;;;;;;7.22;2.80;;;21.00;99.90;;;;;;5020375;28;20041;-72
2022/04/05 09:17:09;;;;;;;7.10;2.40;;;21.00;99.90;;;;;;5013725;28;20025;-72
2022/04/05 09:19:42;;;;;;;;;;;20.90;99.90;;;;;;5012385;28;20025;-72
2022/04/05 09:22:10;;;;;;;5.85;1.08;;;20.90;99.90;;;;;;5008462;28;19909;-72
2022/04/05 09:24:39;;;;;;;5.95;1.30;;;20.90;99.90;;;;;;5012976;28;20034;-72
2022/04/05 09:27:07;;;;;;;4.75;1.20;;;20.90;99.90;;;;;;5017422;28;20026;-73
2022/04/05 09:29:50;;;;;;;5.97;1.40;;;20.80;99.90;;;;;;5012500;28;20026;-72
2022/04/05 09:32:37;;;;;;;5.82;1.50;;;20.80;99.90;;;;;;5026481;28;20451;-72
2022/04/05 09:35:06;;;;;;;8.60;1.35;;;20.70;99.90;;;;;;5015271;28;20398;-73
2022/04/05 09:37:39;;;;;;;3.70;1.23;;;20.70;99.90;;;;;;4995321;28;20478;-72
2022/04/05 09:40:16;;;;;;;6.90;1.55;;;20.70;99.90;;;;;;5007358;28;20038;-74
2022/04/05 09:43:12;;;;;;;7.15;2.70;;;20.70;99.90;;;;;;5011627;28;20028;-72
2022/04/05 09:45:51;;;;;;;9.48;1.42;;;20.70;99.90;;;;;;4998123;28;20022;-72
2022/04/05 09:48:23;;;;;;;6.38;1.92;;;20.70;99.90;;;;;;5019083;28;20025;-72
2022/04/05 09:51:07;;;;;;;6.15;2.30;;;20.60;99.90;;;;;;5005465;28;20046;-72
2022/04/05 09:53:39;;;;;;;4.63;1.52;;;20.60;99.90;;;;;;5013167;28;20037;-72
2022/04/05 09:56:11;;;;;;;7.72;1.25;;;20.60;99.90;;;;;;5011229;28;20040;-72
2022/04/05 09:58:45;;;;;;;9.45;1.95;;;20.60;99.90;;;;;;5012201;28;20034;-72
2022/04/05 10:01:13;;;;;;;8.65;2.28;;;20.60;99.90;;;;;;5017293;28;20140;-72
2022/04/05 10:03:42;;;;;;;5.38;1.15;;;20.60;99.90;;;;;;5028500;28;20030;-72
2022/04/05 10:06:10;;;;;;;5.18;1.30;;;20.60;99.90;;;;;;5009415;28;20026;-71
2022/04/05 10:08:39;;;;;;;4.10;1.17;;;20.50;99.90;;;;;;5015838;28;20017;-72
2022/04/05 10:11:06;;;;;;;5.22;1.35;;;20.60;99.90;;;;;;5015888;28;20478;-72
2022/04/05 10:13:34;;;;;;;6.35;1.75;;;20.60;99.90;;;;;;5008345;28;20061;-72
2022/04/05 10:16:02;;;;;;;5.22;1.30;;;20.60;99.90;;;;;;5010139;28;20034;-73
2022/04/05 10:18:35;;;;;;;6.68;1.50;;;20.60;99.90;;;;;;5016135;28;20489;-74
2022/04/05 10:21:04;;;;;;;3.55;0.90;;;20.60;99.90;;;;;;5017830;28;20026;-73
2022/04/05 10:23:32;;;;;;;5.93;1.00;;;20.50;99.90;;;;;;5011657;28;20030;-73
2022/04/05 10:26:00;;;;;;;5.68;1.45;;;20.50;99.90;;;;;;5016118;28;20036;-74
2022/04/05 10:28:34;;;;;;;6.68;1.15;;;20.50;99.90;;;;;;5012047;28;20037;-73
2022/04/05 10:31:25;;;;;;;7.30;1.23;;;20.50;99.90;;;;;;5016605;28;20034;-73
2022/04/05 10:34:12;;;;;;;6.00;1.65;;;20.50;99.90;;;;;;5012091;28;20057;-73
2022/04/05 10:36:40;;;;;;;6.57;0.93;;;20.40;99.90;;;;;;5015567;28;20037;-73
2022/04/05 10:39:18;;;;;;;7.15;0.88;;;20.50;99.90;;;;;;5014227;28;20022;-73
2022/04/05 10:42:20;;;;;;;7.32;1.63;;;20.40;99.90;;;;;;5015206;28;20065;-73
2022/04/05 10:45:09;;;;;;;5.15;1.05;;;20.30;99.90;;;;;;5007838;28;20044;-73
2022/04/05 10:48:11;;;;;;;4.70;1.67;;;20.40;99.90;;;;;;5006563;28;20022;-73
2022/04/05 10:50:39;;;;;;;5.30;1.50;;;20.40;99.90;;;;;;5015878;28;20044;-73
2022/04/05 10:53:21;;;;;;;4.55;1.45;;;20.30;99.90;;;;;;5014428;28;20041;-73
2022/04/05 10:56:03;;;;;;;6.20;0.80;;;20.30;99.90;;;;;;5023776;28;20382;-73
2022/04/05 10:58:31;;;;;;;9.13;1.70;;;20.30;99.90;;;;;;5016074;28;20101;-73
2022/04/05 11:01:18;;;;;;;9.82;1.48;;;20.30;99.90;;;;;;5004173;28;20080;-74
2022/04/05 11:04:21;;;;;;;4.05;1.10;;;20.20;99.90;;;;;;5009240;28;20483;-74
2022/04/05 11:07:01;;;;;;;6.50;1.20;;;20.30;99.90;;;;;;5009340;28;20049;-71
2022/04/05 11:09:29;;;;;;;4.03;1.05;;;20.30;99.90;;;;;;5012429;28;20108;-71
2022/04/05 11:11:57;;;;;;;4.18;0.90;;;20.30;99.90;;;;;;5013430;28;20036;-71
2022/04/05 11:14:51;;;;;;;7.00;1.52;;;20.30;99.90;;;;;;5010463;28;20088;-71
2022/04/05 11:17:21;;;;;;;11.95;1.70;;;20.30;99.90;;;;;;5009595;28;20064;-71
2022/04/05 11:19:53;;;;;;;6.97;1.27;;;20.30;99.90;;;;;;5013256;28;20025;-71
2022/04/05 11:22:21;;;;;;;9.30;1.20;;;20.30;99.90;;;;;;5020178;28;20402;-71
2022/04/05 11:25:09;;;;;;;6.78;1.30;;;20.30;99.90;;;;;;5016942;28;20036;-71
2022/04/05 11:27:52;;;;;;;4.93;1.08;;;20.30;99.90;;;;;;5013691;28;20386;-71
2022/04/05 11:30:28;;;;;;;9.15;1.27;;;20.30;99.90;;;;;;5024732;28;20061;-71
2022/04/05 11:33:17;;;;;;;6.18;2.03;;;20.20;99.90;;;;;;5015534;28;20072;-71
2022/04/05 11:35:57;;;;;;;5.88;1.10;;;20.20;99.90;;;;;;5014074;28;20160;-71
2022/04/05 11:38:27;;;;;;;7.72;0.98;;;20.10;99.90;;;;;;5013261;28;20022;-71
2022/04/05 11:40:58;;;;;;;3.58;0.88;;;20.10;99.90;;;;;;5012391;28;20026;-70
2022/04/05 11:43:34;;;;;;;3.45;0.98;;;20.10;99.90;;;;;;5010920;28;20504;-71
2022/04/05 11:46:16;;;;;;;4.60;1.05;;;20.10;99.90;;;;;;5007243;28;20510;-70
2022/04/05 11:48:45;;;;;;;5.00;1.13;;;20.10;99.90;;;;;;5009869;28;20033;-68
2022/04/05 11:51:18;;;;;;;8.30;1.27;;;20.10;99.90;;;;;;5014448;28;20033;-69
2022/04/05 11:53:46;;;;;;;4.97;1.25;;;20.10;99.90;;;;;;5025901;28;20030;-69
2022/04/05 11:56:22;;;;;;;6.50;1.23;;;20.00;99.90;;;;;;5012216;28;20030;-69
2022/04/05 11:58:54;;;;;;;6.25;0.85;;;20.10;99.90;;;;;;5009883;28;20029;-69
2022/04/05 12:01:28;;;;;;;7.65;0.90;;;20.10;99.90;;;;;;5007833;28;20108;-70
2022/04/05 12:04:00;;;;;;;5.75;1.05;;;20.00;99.90;;;;;;5009521;28;20032;-69
2022/04/05 12:06:33;;;;;;;10.43;1.05;;;20.00;99.90;;;;;;5012664;28;20482;-69
2022/04/05 12:09:06;;;;;;;3.33;0.60;;;20.00;99.90;;;;;;5010756;28;20026;-69
2022/04/05 12:11:34;;;;;;;4.30;0.98;;;20.00;99.90;;;;;;5012519;28;20283;-69
2022/04/05 12:14:09;;;;;;;15.68;1.30;;;20.00;99.90;;;;;;5013630;28;20029;-69
2022/04/05 12:16:50;;;;;;;6.80;1.00;;;20.00;99.90;;;;;;5010983;28;20029;-70
2022/04/05 12:19:28;;;;;;;5.03;0.90;;;20.00;99.90;;;;;;5013379;28;20486;-70
2022/04/05 12:22:07;;;;;;;5.95;1.42;;;20.00;99.90;;;;;;5012543;28;20161;-69
2022/04/05 12:24:43;;;;;;;8.45;1.98;;;19.90;99.90;;;;;;5008334;28;20032;-70
2022/04/05 12:27:11;;;;;;;11.75;1.58;;;19.90;99.90;;;;;;5008726;28;20033;-70
2022/04/05 12:29:40;;;;;;;7.50;1.40;;;20.00;99.90;;;;;;5012394;28;20026;-70
2022/04/05 12:32:10;;;;;;;6.05;1.38;;;20.00;99.90;;;;;;5002961;28;20538;-70
2022/04/05 12:34:39;;;;;;;5.30;0.73;;;20.00;99.90;;;;;;5008491;28;20597;-70
2022/04/05 12:37:12;;;;;;;3.90;1.20;;;19.90;99.90;;;;;;5010913;28;20047;-69
2022/04/05 12:39:50;;;;;;;5.95;0.70;;;19.90;99.90;;;;;;5008204;28;20038;-69
2022/04/05 12:42:19;;;;;;;4.82;0.85;;;19.90;99.90;;;;;;5009796;28;20034;-69
2022/04/05 12:44:48;;;;;;;6.93;1.23;;;19.90;99.90;;;;;;5013299;28;20018;-70
2022/04/05 12:47:24;;;;;;;5.05;0.98;;;19.90;99.90;;;;;;5011325;28;20058;-69
2022/04/05 12:49:54;;;;;;;3.17;0.60;;;19.90;99.90;;;;;;5008924;28;20112;-69
2022/04/05 12:52:24;;;;;;;4.53;0.77;;;19.90;99.90;;;;;;5013467;28;20034;-70
2022/04/05 12:54:55;;;;;;;2.90;0.70;;;19.80;99.90;;;;;;5013849;28;20491;-69
2022/04/05 12:57:31;;;;;;;3.40;1.38;;;19.80;99.90;;;;;;5012216;28;20056;-70
2022/04/05 13:00:15;;;;;;;6.88;1.40;;;19.80;99.90;;;;;;5012193;28;20049;-70